sensor_id;sensor_type;location;lat;lon;timestamp;P1;durP1;ratioP1;P2;durP2;ratioP2
19863;SDS011;10094;48.820;9.226;2023-04-15T00:05:48;9.20;;;5.97;;
19863;SDS011;10094;48.820;9.226;2023-04-15T00:12:30;9.07;;;5.82;;
19863;SDS011;10094;48.820;9.226;2023-04-15T00:19:12;7.28;;;5.57;;
19863;SDS011;10094;48.820;9.226;2023-04-15T00:25:55;16.20;;;6.50;;
19863;SDS011;10094;48.820;9.226;2023-04-15T00:32:38;11.95;;;5.53;;
19863;SDS011;10094;48.820;9.226;2023-04-15T00:39:21;9.50;;;5.63;;
19863;SDS011;10094;48.820;9.226;2023-04-15T00:46:05;9.48;;;5.95;;
19863;SDS011;10094;48.820;9.226;2023-04-15T00:52:48;10.38;;;5.97;;
19863;SDS011;10094;48.820;9.226;2023-04-15T00:59:30;7.85;;;5.82;;
19863;SDS011;10094;48.820;9.226;2023-04-15T01:06:14;14.93;;;9.90;;
19863;SDS011;10094;48.820;9.226;2023-04-15T01:12:58;10.52;;;6.57;;
19863;SDS011;10094;48.820;9.226;2023-04-15T01:19:41;9.32;;;6.15;;
19863;SDS011;10094;48.820;9.226;2023-04-15T01:26:24;12.73;;;6.47;;
19863;SDS011;10094;48.820;9.226;2023-04-15T01:33:06;12.00;;;6.22;;
19863;SDS011;10094;48.820;9.226;2023-04-15T01:40:08;10.00;;;6.60;;
19863;SDS011;10094;48.820;9.226;2023-04-15T01:46:52;11.63;;;6.47;;
19863;SDS011;10094;48.820;9.226;2023-04-15T01:53:36;12.30;;;6.75;;
19863;SDS011;10094;48.820;9.226;2023-04-15T02:00:20;12.60;;;6.80;;
19863;SDS011;10094;48.820;9.226;2023-04-15T02:07:05;13.95;;;6.47;;
19863;SDS011;10094;48.820;9.226;2023-04-15T02:13:50;12.02;;;7.13;;
19863;SDS011;10094;48.820;9.226;2023-04-15T02:20:34;11.45;;;6.90;;
19863;SDS011;10094;48.820;9.226;2023-04-15T02:27:18;9.95;;;6.50;;
19863;SDS011;10094;48.820;9.226;2023-04-15T02:34:02;10.02;;;6.97;;
19863;SDS011;10094;48.820;9.226;2023-04-15T02:40:46;11.85;;;6.07;;
19863;SDS011;10094;48.820;9.226;2023-04-15T02:47:32;10.77;;;7.55;;
19863;SDS011;10094;48.820;9.226;2023-04-15T02:54:20;13.73;;;7.50;;
19863;SDS011;10094;48.820;9.226;2023-04-15T03:01:05;18.45;;;6.85;;
19863;SDS011;10094;48.820;9.226;2023-04-15T03:07:50;15.45;;;7.63;;
19863;SDS011;10094;48.820;9.226;2023-04-15T03:14:34;10.43;;;6.72;;
19863;SDS011;10094;48.820;9.226;2023-04-15T03:21:18;8.95;;;5.65;;
19863;SDS011;10094;48.820;9.226;2023-04-15T03:28:04;8.73;;;5.70;;
19863;SDS011;10094;48.820;9.226;2023-04-15T03:34:48;11.27;;;6.53;;
19863;SDS011;10094;48.820;9.226;2023-04-15T03:41:32;10.57;;;6.05;;
19863;SDS011;10094;48.820;9.226;2023-04-15T03:48:16;10.38;;;5.88;;
19863;SDS011;10094;48.820;9.226;2023-04-15T03:55:00;10.25;;;5.97;;
19863;SDS011;10094;48.820;9.226;2023-04-15T04:01:44;12.73;;;6.63;;
19863;SDS011;10094;48.820;9.226;2023-04-15T04:08:28;9.43;;;5.75;;
19863;SDS011;10094;48.820;9.226;2023-04-15T04:15:11;7.72;;;5.93;;
19863;SDS011;10094;48.820;9.226;2023-04-15T04:21:55;9.02;;;6.22;;
19863;SDS011;10094;48.820;9.226;2023-04-15T04:28:38;10.52;;;6.25;;
19863;SDS011;10094;48.820;9.226;2023-04-15T04:35:22;13.70;;;7.05;;
19863;SDS011;10094;48.820;9.226;2023-04-15T04:42:06;14.50;;;6.13;;
19863;SDS011;10094;48.820;9.226;2023-04-15T04:48:49;8.18;;;6.03;;
19863;SDS011;10094;48.820;9.226;2023-04-15T04:55:33;16.27;;;7.22;;
19863;SDS011;10094;48.820;9.226;2023-04-15T05:02:19;12.02;;;7.25;;
19863;SDS011;10094;48.820;9.226;2023-04-15T05:09:02;12.95;;;6.53;;
19863;SDS011;10094;48.820;9.226;2023-04-15T05:15:46;12.15;;;6.60;;
19863;SDS011;10094;48.820;9.226;2023-04-15T05:22:30;10.30;;;5.97;;
19863;SDS011;10094;48.820;9.226;2023-04-15T05:29:13;10.25;;;6.10;;
19863;SDS011;10094;48.820;9.226;2023-04-15T05:35:57;12.90;;;5.72;;
19863;SDS011;10094;48.820;9.226;2023-04-15T05:42:41;12.77;;;5.75;;
19863;SDS011;10094;48.820;9.226;2023-04-15T05:49:24;9.77;;;5.50;;
19863;SDS011;10094;48.820;9.226;2023-04-15T05:56:08;11.38;;;5.65;;
19863;SDS011;10094;48.820;9.226;2023-04-15T06:02:51;6.50;;;4.32;;
19863;SDS011;10094;48.820;9.226;2023-04-15T06:09:35;6.95;;;4.40;;
19863;SDS011;10094;48.820;9.226;2023-04-15T06:16:19;6.35;;;4.70;;
19863;SDS011;10094;48.820;9.226;2023-04-15T06:23:03;5.15;;;4.43;;
19863;SDS011;10094;48.820;9.226;2023-04-15T06:29:46;5.00;;;4.40;;
19863;SDS011;10094;48.820;9.226;2023-04-15T06:36:30;7.78;;;4.25;;
19863;SDS011;10094;48.820;9.226;2023-04-15T06:43:14;7.57;;;4.63;;
19863;SDS011;10094;48.820;9.226;2023-04-15T06:49:58;7.45;;;4.53;;
19863;SDS011;10094;48.820;9.226;2023-04-15T06:56:41;8.45;;;4.65;;
19863;SDS011;10094;48.820;9.226;2023-04-15T07:03:25;7.05;;;4.65;;
19863;SDS011;10094;48.820;9.226;2023-04-15T07:10:09;5.47;;;4.10;;
19863;SDS011;10094;48.820;9.226;2023-04-15T07:16:54;6.43;;;4.07;;
19863;SDS011;10094;48.820;9.226;2023-04-15T07:23:38;9.07;;;4.40;;
19863;SDS011;10094;48.820;9.226;2023-04-15T07:30:22;8.18;;;4.53;;
19863;SDS011;10094;48.820;9.226;2023-04-15T07:37:05;5.78;;;4.22;;
19863;SDS011;10094;48.820;9.226;2023-04-15T07:43:50;7.78;;;4.68;;
19863;SDS011;10094;48.820;9.226;2023-04-15T07:50:34;7.43;;;4.68;;
19863;SDS011;10094;48.820;9.226;2023-04-15T07:57:18;7.13;;;4.05;;
19863;SDS011;10094;48.820;9.226;2023-04-15T08:04:02;7.57;;;4.33;;
19863;SDS011;10094;48.820;9.226;2023-04-15T08:10:46;8.00;;;5.80;;
19863;SDS011;10094;48.820;9.226;2023-04-15T08:17:30;6.72;;;4.53;;
19863;SDS011;10094;48.820;9.226;2023-04-15T08:24:14;6.43;;;4.32;;
19863;SDS011;10094;48.820;9.226;2023-04-15T08:30:58;6.38;;;3.90;;
19863;SDS011;10094;48.820;9.226;2023-04-15T08:37:41;6.28;;;3.97;;
19863;SDS011;10094;48.820;9.226;2023-04-15T08:44:32;8.02;;;4.45;;
19863;SDS011;10094;48.820;9.226;2023-04-15T08:51:16;6.72;;;4.22;;
19863;SDS011;10094;48.820;9.226;2023-04-15T08:58:00;6.05;;;3.90;;
19863;SDS011;10094;48.820;9.226;2023-04-15T09:04:45;6.10;;;3.78;;
19863;SDS011;10094;48.820;9.226;2023-04-15T09:11:28;4.82;;;3.50;;
19863;SDS011;10094;48.820;9.226;2023-04-15T09:18:21;11.35;;;4.28;;
19863;SDS011;10094;48.820;9.226;2023-04-15T09:32:12;6.55;;;3.55;;
19863;SDS011;10094;48.820;9.226;2023-04-15T09:38:57;5.53;;;3.20;;
19863;SDS011;10094;48.820;9.226;2023-04-15T09:45:52;3.40;;;2.25;;
19863;SDS011;10094;48.820;9.226;2023-04-15T09:52:40;3.83;;;2.45;;
19863;SDS011;10094;48.820;9.226;2023-04-15T09:59:27;4.68;;;3.25;;
19863;SDS011;10094;48.820;9.226;2023-04-15T10:06:11;5.53;;;3.40;;
19863;SDS011;10094;48.820;9.226;2023-04-15T10:12:55;4.15;;;3.40;;
19863;SDS011;10094;48.820;9.226;2023-04-15T10:19:39;4.30;;;2.88;;
19863;SDS011;10094;48.820;9.226;2023-04-15T10:26:23;6.15;;;3.13;;
19863;SDS011;10094;48.820;9.226;2023-04-15T10:33:07;5.15;;;2.53;;
19863;SDS011;10094;48.820;9.226;2023-04-15T10:39:52;4.90;;;2.50;;
19863;SDS011;10094;48.820;9.226;2023-04-15T10:46:39;5.53;;;2.70;;
19863;SDS011;10094;48.820;9.226;2023-04-15T10:53:27;5.18;;;2.78;;
19863;SDS011;10094;48.820;9.226;2023-04-15T11:00:12;8.60;;;2.70;;
19863;SDS011;10094;48.820;9.226;2023-04-15T11:07:04;5.05;;;3.28;;
19863;SDS011;10094;48.820;9.226;2023-04-15T11:13:50;3.22;;;2.92;;
19863;SDS011;10094;48.820;9.226;2023-04-15T11:20:35;6.50;;;3.40;;
19863;SDS011;10094;48.820;9.226;2023-04-15T11:27:20;5.55;;;3.28;;
19863;SDS011;10094;48.820;9.226;2023-04-15T11:34:05;9.18;;;3.28;;
19863;SDS011;10094;48.820;9.226;2023-04-15T11:40:49;8.57;;;4.30;;
19863;SDS011;10094;48.820;9.226;2023-04-15T11:47:34;6.70;;;4.00;;
19863;SDS011;10094;48.820;9.226;2023-04-15T11:54:19;7.53;;;3.97;;
19863;SDS011;10094;48.820;9.226;2023-04-15T12:01:01;6.45;;;3.58;;
19863;SDS011;10094;48.820;9.226;2023-04-15T12:07:57;4.80;;;2.58;;
19863;SDS011;10094;48.820;9.226;2023-04-15T12:14:40;3.33;;;2.33;;
19863;SDS011;10094;48.820;9.226;2023-04-15T12:21:24;5.40;;;2.53;;
19863;SDS011;10094;48.820;9.226;2023-04-15T12:28:10;6.15;;;4.03;;
19863;SDS011;10094;48.820;9.226;2023-04-15T12:34:53;8.18;;;4.28;;
19863;SDS011;10094;48.820;9.226;2023-04-15T12:41:36;11.20;;;3.60;;
19863;SDS011;10094;48.820;9.226;2023-04-15T12:48:18;5.57;;;3.35;;
19863;SDS011;10094;48.820;9.226;2023-04-15T12:55:01;5.10;;;3.00;;
19863;SDS011;10094;48.820;9.226;2023-04-15T13:01:44;4.97;;;3.22;;
19863;SDS011;10094;48.820;9.226;2023-04-15T13:08:28;4.18;;;2.75;;
19863;SDS011;10094;48.820;9.226;2023-04-15T13:15:10;4.43;;;2.80;;
19863;SDS011;10094;48.820;9.226;2023-04-15T13:21:53;3.75;;;2.30;;
19863;SDS011;10094;48.820;9.226;2023-04-15T13:28:36;3.50;;;2.40;;
19863;SDS011;10094;48.820;9.226;2023-04-15T13:35:19;3.97;;;2.45;;
19863;SDS011;10094;48.820;9.226;2023-04-15T13:42:02;4.35;;;1.90;;
19863;SDS011;10094;48.820;9.226;2023-04-15T13:48:44;2.13;;;1.70;;
19863;SDS011;10094;48.820;9.226;2023-04-15T13:55:27;2.08;;;1.10;;
19863;SDS011;10094;48.820;9.226;2023-04-15T14:02:09;2.90;;;1.52;;
19863;SDS011;10094;48.820;9.226;2023-04-15T14:08:52;2.88;;;1.20;;
19863;SDS011;10094;48.820;9.226;2023-04-15T14:15:35;2.38;;;1.35;;
19863;SDS011;10094;48.820;9.226;2023-04-15T14:22:17;2.60;;;1.25;;
19863;SDS011;10094;48.820;9.226;2023-04-15T14:29:00;1.92;;;1.38;;
19863;SDS011;10094;48.820;9.226;2023-04-15T14:35:43;2.65;;;1.77;;
19863;SDS011;10094;48.820;9.226;2023-04-15T14:42:25;2.30;;;1.55;;
19863;SDS011;10094;48.820;9.226;2023-04-15T14:49:07;2.45;;;1.40;;
19863;SDS011;10094;48.820;9.226;2023-04-15T14:55:50;2.05;;;1.30;;
19863;SDS011;10094;48.820;9.226;2023-04-15T15:02:32;2.08;;;1.60;;
19863;SDS011;10094;48.820;9.226;2023-04-15T15:09:18;3.33;;;1.90;;
19863;SDS011;10094;48.820;9.226;2023-04-15T15:16:02;3.95;;;2.00;;
19863;SDS011;10094;48.820;9.226;2023-04-15T15:22:45;2.05;;;1.70;;
19863;SDS011;10094;48.820;9.226;2023-04-15T15:29:27;3.78;;;1.65;;
19863;SDS011;10094;48.820;9.226;2023-04-15T15:36:10;3.25;;;1.63;;
19863;SDS011;10094;48.820;9.226;2023-04-15T15:42:52;3.20;;;1.80;;
19863;SDS011;10094;48.820;9.226;2023-04-15T15:49:35;2.05;;;1.85;;
19863;SDS011;10094;48.820;9.226;2023-04-15T15:56:17;3.20;;;2.03;;
19863;SDS011;10094;48.820;9.226;2023-04-15T16:02:59;2.35;;;2.10;;
19863;SDS011;10094;48.820;9.226;2023-04-15T16:09:48;4.30;;;2.10;;
19863;SDS011;10094;48.820;9.226;2023-04-15T16:16:31;2.88;;;2.05;;
19863;SDS011;10094;48.820;9.226;2023-04-15T16:23:14;4.05;;;2.20;;
19863;SDS011;10094;48.820;9.226;2023-04-15T16:29:57;4.50;;;2.22;;
19863;SDS011;10094;48.820;9.226;2023-04-15T16:36:39;2.70;;;2.20;;
19863;SDS011;10094;48.820;9.226;2023-04-15T16:43:22;4.05;;;2.63;;
19863;SDS011;10094;48.820;9.226;2023-04-15T16:50:05;3.78;;;2.92;;
19863;SDS011;10094;48.820;9.226;2023-04-15T16:56:48;4.50;;;3.00;;
19863;SDS011;10094;48.820;9.226;2023-04-15T17:03:31;4.82;;;3.83;;
19863;SDS011;10094;48.820;9.226;2023-04-15T17:10:13;3.85;;;3.45;;
19863;SDS011;10094;48.820;9.226;2023-04-15T17:16:56;4.63;;;3.97;;
19863;SDS011;10094;48.820;9.226;2023-04-15T17:23:38;4.38;;;3.20;;
19863;SDS011;10094;48.820;9.226;2023-04-15T17:30:21;4.90;;;4.00;;
19863;SDS011;10094;48.820;9.226;2023-04-15T17:37:23;4.35;;;3.40;;
19863;SDS011;10094;48.820;9.226;2023-04-15T17:44:26;3.13;;;2.67;;
19863;SDS011;10094;48.820;9.226;2023-04-15T17:51:28;3.55;;;2.47;;
19863;SDS011;10094;48.820;9.226;2023-04-15T17:58:40;2.25;;;2.05;;
19863;SDS011;10094;48.820;9.226;2023-04-15T18:05:42;3.17;;;2.60;;
19863;SDS011;10094;48.820;9.226;2023-04-15T18:12:45;3.42;;;2.25;;
19863;SDS011;10094;48.820;9.226;2023-04-15T18:19:48;4.68;;;2.97;;
19863;SDS011;10094;48.820;9.226;2023-04-15T18:26:30;3.30;;;3.00;;
19863;SDS011;10094;48.820;9.226;2023-04-15T18:33:12;3.00;;;2.40;;
19863;SDS011;10094;48.820;9.226;2023-04-15T18:39:55;3.80;;;2.50;;
19863;SDS011;10094;48.820;9.226;2023-04-15T18:46:38;3.58;;;2.63;;
19863;SDS011;10094;48.820;9.226;2023-04-15T18:53:20;3.92;;;2.30;;
19863;SDS011;10094;48.820;9.226;2023-04-15T19:00:03;2.72;;;2.50;;
19863;SDS011;10094;48.820;9.226;2023-04-15T19:06:46;5.63;;;3.35;;
19863;SDS011;10094;48.820;9.226;2023-04-15T19:13:28;3.20;;;2.90;;
19863;SDS011;10094;48.820;9.226;2023-04-15T19:20:11;4.88;;;3.80;;
19863;SDS011;10094;48.820;9.226;2023-04-15T19:26:53;4.35;;;3.90;;
19863;SDS011;10094;48.820;9.226;2023-04-15T19:33:35;5.80;;;5.22;;
19863;SDS011;10094;48.820;9.226;2023-04-15T19:40:18;6.07;;;5.47;;
19863;SDS011;10094;48.820;9.226;2023-04-15T19:47:00;6.05;;;5.18;;
19863;SDS011;10094;48.820;9.226;2023-04-15T19:53:43;6.90;;;6.20;;
19863;SDS011;10094;48.820;9.226;2023-04-15T20:00:25;6.75;;;6.10;;
19863;SDS011;10094;48.820;9.226;2023-04-15T20:07:08;7.22;;;6.53;;
19863;SDS011;10094;48.820;9.226;2023-04-15T20:13:50;7.45;;;6.75;;
19863;SDS011;10094;48.820;9.226;2023-04-15T20:20:33;7.97;;;7.18;;
19863;SDS011;10094;48.820;9.226;2023-04-15T20:27:16;7.38;;;6.68;;
19863;SDS011;10094;48.820;9.226;2023-04-15T20:33:58;8.48;;;7.20;;
19863;SDS011;10094;48.820;9.226;2023-04-15T20:40:40;7.85;;;7.13;;
19863;SDS011;10094;48.820;9.226;2023-04-15T20:47:23;8.07;;;7.25;;
19863;SDS011;10094;48.820;9.226;2023-04-15T20:54:05;8.88;;;7.90;;
19863;SDS011;10094;48.820;9.226;2023-04-15T21:00:48;9.60;;;8.70;;
19863;SDS011;10094;48.820;9.226;2023-04-15T21:07:30;8.35;;;7.45;;
19863;SDS011;10094;48.820;9.226;2023-04-15T21:14:13;9.27;;;7.72;;
19863;SDS011;10094;48.820;9.226;2023-04-15T21:20:56;8.48;;;7.63;;
19863;SDS011;10094;48.820;9.226;2023-04-15T21:27:43;10.13;;;9.13;;
19863;SDS011;10094;48.820;9.226;2023-04-15T21:34:25;8.98;;;8.07;;
19863;SDS011;10094;48.820;9.226;2023-04-15T21:41:07;9.52;;;8.63;;
19863;SDS011;10094;48.820;9.226;2023-04-15T21:47:50;10.65;;;9.35;;
19863;SDS011;10094;48.820;9.226;2023-04-15T21:54:47;11.18;;;9.73;;
19863;SDS011;10094;48.820;9.226;2023-04-15T22:01:30;10.80;;;9.73;;
19863;SDS011;10094;48.820;9.226;2023-04-15T22:08:12;11.65;;;10.45;;
19863;SDS011;10094;48.820;9.226;2023-04-15T22:14:54;13.50;;;12.07;;
19863;SDS011;10094;48.820;9.226;2023-04-15T22:21:37;12.82;;;11.52;;
19863;SDS011;10094;48.820;9.226;2023-04-15T22:28:19;13.35;;;11.95;;
19863;SDS011;10094;48.820;9.226;2023-04-15T22:35:02;13.88;;;11.88;;
19863;SDS011;10094;48.820;9.226;2023-04-15T22:41:47;13.63;;;11.90;;
19863;SDS011;10094;48.820;9.226;2023-04-15T22:48:30;14.38;;;12.70;;
19863;SDS011;10094;48.820;9.226;2023-04-15T22:55:12;15.80;;;13.68;;
19863;SDS011;10094;48.820;9.226;2023-04-15T23:01:55;14.43;;;12.93;;
19863;SDS011;10094;48.820;9.226;2023-04-15T23:08:39;13.48;;;12.02;;
19863;SDS011;10094;48.820;9.226;2023-04-15T23:15:22;13.85;;;11.60;;
19863;SDS011;10094;48.820;9.226;2023-04-15T23:22:04;12.73;;;11.45;;
19863;SDS011;10094;48.820;9.226;2023-04-15T23:28:47;12.90;;;11.52;;
19863;SDS011;10094;48.820;9.226;2023-04-15T23:35:30;13.70;;;12.30;;
19863;SDS011;10094;48.820;9.226;2023-04-15T23:42:12;13.23;;;11.82;;
19863;SDS011;10094;48.820;9.226;2023-04-15T23:48:54;14.00;;;12.48;;
19863;SDS011;10094;48.820;9.226;2023-04-15T23:55:37;15.23;;;12.63;;
